SBSV/SSA METAR and TAF weather

Enter ICAO airport designator
Station Type Date Time Source
SBSV METAR 2019/04/25 10:00 UTC NOAA

SBSV 251000Z 12008KT 9999 SCT023 SCT070 28/22 Q1015


Station Type Date Time Source
SBSV Decoded METAR 2019/04/25 10:00 UTC NOAA

Salvador Aeroporto , Brazil (SBSV) 12-54S 038-20W 13M
Apr 25, 2019 - 06:00 AM EDT / 2019.04.25 1000 UTC
Wind: from the ESE (120 degrees) at 9 MPH (8 KT):0
Visibility: greater than 7 mile(s):0
Sky conditions: partly cloudy
Temperature: 82 F (28 C)
Dew Point: 71 F (22 C)
Relative Humidity: 69%
Pressure (altimeter): 29.97 in. Hg (1015 hPa)
ob: SBSV 251000Z 12008KT 9999 SCT023 SCT070 28/22 Q1015
cycle: 10

Station Type Date Time Source
SBSV TAF 2019/04/25 06:15 UTC NOAA

TAF SBSV 250400Z 2506/2606 12007KT 9999 SCT022 TN25/2508Z TX31/2517Z
BECMG 2515/2517 11008KT FEW020
RMK PAY

Example: see airport list